Terminal Aerodrome Forecast
Issued by NWS Wichita, KS

Home | Current Version | Previous Version | Text Only | Print | Product List | Glossary Off
Versions: 1 2 3 4 5 6 7 8 9 10 11 12 13 14 15 16 17 18 19 20 21

000
FTUS43 KICT 231137
TAFICT
TAF
KICT 231137Z 2312/2412 10007KT P6SM BKN040
     FM231400 11013KT P6SM OVC035
     FM231900 12015G22KT P6SM OVC035
     FM240600 14016G23KT P6SM VCTS OVC020CB=

USA.gov is the U.S. government's official web portal to all federal, state and local government web resources and services.